sensor_id;sensor_type;location;lat;lon;timestamp;temperature;humidity
5802;DHT22;2927;49.366;8.530;2023-04-08T00:00:51;7.80;99.90
5802;DHT22;2927;49.366;8.530;2023-04-08T00:03:17;7.80;99.90
5802;DHT22;2927;49.366;8.530;2023-04-08T00:05:42;7.80;99.90
5802;DHT22;2927;49.366;8.530;2023-04-08T00:08:08;7.80;99.90
5802;DHT22;2927;49.366;8.530;2023-04-08T00:10:33;7.70;99.90
5802;DHT22;2927;49.366;8.530;2023-04-08T00:12:59;7.70;99.90
5802;DHT22;2927;49.366;8.530;2023-04-08T00:15:25;7.80;99.90
5802;DHT22;2927;49.366;8.530;2023-04-08T00:17:51;7.80;99.90
5802;DHT22;2927;49.366;8.530;2023-04-08T00:20:19;7.80;99.90
5802;DHT22;2927;49.366;8.530;2023-04-08T00:22:44;7.80;99.90
5802;DHT22;2927;49.366;8.530;2023-04-08T00:25:11;7.80;99.90
5802;DHT22;2927;49.366;8.530;2023-04-08T00:27:36;7.80;99.90
5802;DHT22;2927;49.366;8.530;2023-04-08T00:30:02;7.90;99.90
5802;DHT22;2927;49.366;8.530;2023-04-08T00:32:28;7.90;99.90
5802;DHT22;2927;49.366;8.530;2023-04-08T00:34:54;7.80;99.90
5802;DHT22;2927;49.366;8.530;2023-04-08T00:37:19;7.80;99.90
5802;DHT22;2927;49.366;8.530;2023-04-08T00:39:45;7.80;99.90
5802;DHT22;2927;49.366;8.530;2023-04-08T00:42:11;7.80;99.90
5802;DHT22;2927;49.366;8.530;2023-04-08T00:44:36;7.80;99.90
5802;DHT22;2927;49.366;8.530;2023-04-08T00:47:03;7.80;99.90
5802;DHT22;2927;49.366;8.530;2023-04-08T00:49:30;7.80;99.90
5802;DHT22;2927;49.366;8.530;2023-04-08T00:51:56;7.80;99.90
5802;DHT22;2927;49.366;8.530;2023-04-08T00:54:21;7.80;99.90
5802;DHT22;2927;49.366;8.530;2023-04-08T00:56:47;7.90;99.90
5802;DHT22;2927;49.366;8.530;2023-04-08T00:59:13;7.90;99.90
5802;DHT22;2927;49.366;8.530;2023-04-08T01:01:46;7.90;99.90
5802;DHT22;2927;49.366;8.530;2023-04-08T01:04:27;7.80;99.90
5802;DHT22;2927;49.366;8.530;2023-04-08T01:07:13;7.80;99.90
5802;DHT22;2927;49.366;8.530;2023-04-08T01:09:44;7.80;99.90
5802;DHT22;2927;49.366;8.530;2023-04-08T01:12:12;7.90;99.90
5802;DHT22;2927;49.366;8.530;2023-04-08T01:14:42;7.90;99.90
5802;DHT22;2927;49.366;8.530;2023-04-08T01:17:10;7.90;99.90
5802;DHT22;2927;49.366;8.530;2023-04-08T01:19:38;7.90;99.90
5802;DHT22;2927;49.366;8.530;2023-04-08T01:25:15;7.90;99.90
5802;DHT22;2927;49.366;8.530;2023-04-08T01:27:42;7.90;99.90
5802;DHT22;2927;49.366;8.530;2023-04-08T01:30:08;7.90;99.90
5802;DHT22;2927;49.366;8.530;2023-04-08T01:32:35;7.90;99.90
5802;DHT22;2927;49.366;8.530;2023-04-08T01:35:02;7.90;99.90
5802;DHT22;2927;49.366;8.530;2023-04-08T01:37:29;7.90;99.90
5802;DHT22;2927;49.366;8.530;2023-04-08T01:39:55;7.90;99.90
5802;DHT22;2927;49.366;8.530;2023-04-08T01:42:25;7.90;99.90
5802;DHT22;2927;49.366;8.530;2023-04-08T01:44:52;7.90;99.90
5802;DHT22;2927;49.366;8.530;2023-04-08T01:47:19;7.90;99.90
5802;DHT22;2927;49.366;8.530;2023-04-08T01:49:46;7.90;99.90
5802;DHT22;2927;49.366;8.530;2023-04-08T01:52:12;7.90;99.90
5802;DHT22;2927;49.366;8.530;2023-04-08T01:54:38;7.90;99.90
5802;DHT22;2927;49.366;8.530;2023-04-08T01:57:06;7.90;99.90
5802;DHT22;2927;49.366;8.530;2023-04-08T01:59:34;7.90;99.90
5802;DHT22;2927;49.366;8.530;2023-04-08T02:02:01;7.90;99.90
5802;DHT22;2927;49.366;8.530;2023-04-08T02:04:29;7.90;99.90
5802;DHT22;2927;49.366;8.530;2023-04-08T02:06:55;7.90;99.90
5802;DHT22;2927;49.366;8.530;2023-04-08T02:09:21;7.90;99.90
5802;DHT22;2927;49.366;8.530;2023-04-08T02:11:47;7.80;99.90
5802;DHT22;2927;49.366;8.530;2023-04-08T02:14:12;7.80;99.90
5802;DHT22;2927;49.366;8.530;2023-04-08T02:16:52;7.70;99.90
5802;DHT22;2927;49.366;8.530;2023-04-08T02:19:50;7.60;99.90
5802;DHT22;2927;49.366;8.530;2023-04-08T02:25:14;7.60;99.90
5802;DHT22;2927;49.366;8.530;2023-04-08T02:27:40;7.60;99.90
5802;DHT22;2927;49.366;8.530;2023-04-08T02:30:07;7.60;99.90
5802;DHT22;2927;49.366;8.530;2023-04-08T02:32:35;7.60;99.90
5802;DHT22;2927;49.366;8.530;2023-04-08T02:35:01;7.60;99.90
5802;DHT22;2927;49.366;8.530;2023-04-08T02:37:28;7.60;99.90
5802;DHT22;2927;49.366;8.530;2023-04-08T02:39:55;7.70;99.90
5802;DHT22;2927;49.366;8.530;2023-04-08T02:42:20;7.60;99.90
5802;DHT22;2927;49.366;8.530;2023-04-08T02:44:46;7.60;99.90
5802;DHT22;2927;49.366;8.530;2023-04-08T02:47:12;7.50;99.90
5802;DHT22;2927;49.366;8.530;2023-04-08T02:49:37;7.50;99.90
5802;DHT22;2927;49.366;8.530;2023-04-08T02:52:03;7.40;99.90
5802;DHT22;2927;49.366;8.530;2023-04-08T02:54:29;7.40;99.90
5802;DHT22;2927;49.366;8.530;2023-04-08T02:56:54;7.30;99.90
5802;DHT22;2927;49.366;8.530;2023-04-08T02:59:20;7.30;99.90
5802;DHT22;2927;49.366;8.530;2023-04-08T03:01:45;7.20;99.90
5802;DHT22;2927;49.366;8.530;2023-04-08T03:04:11;7.20;99.90
5802;DHT22;2927;49.366;8.530;2023-04-08T03:06:37;7.10;99.90
5802;DHT22;2927;49.366;8.530;2023-04-08T03:09:02;7.10;99.90
5802;DHT22;2927;49.366;8.530;2023-04-08T03:11:28;7.00;99.90
5802;DHT22;2927;49.366;8.530;2023-04-08T03:13:53;6.90;99.90
5802;DHT22;2927;49.366;8.530;2023-04-08T03:16:19;6.90;99.90
5802;DHT22;2927;49.366;8.530;2023-04-08T03:18:44;6.80;99.90
5802;DHT22;2927;49.366;8.530;2023-04-08T03:21:10;6.60;99.90
5802;DHT22;2927;49.366;8.530;2023-04-08T03:23:36;6.60;99.90
5802;DHT22;2927;49.366;8.530;2023-04-08T03:26:01;6.50;99.90
5802;DHT22;2927;49.366;8.530;2023-04-08T03:28:27;6.40;99.90
5802;DHT22;2927;49.366;8.530;2023-04-08T03:30:52;6.40;99.90
5802;DHT22;2927;49.366;8.530;2023-04-08T03:33:18;6.30;99.90
5802;DHT22;2927;49.366;8.530;2023-04-08T03:35:43;6.30;99.90
5802;DHT22;2927;49.366;8.530;2023-04-08T03:38:09;6.20;99.90
5802;DHT22;2927;49.366;8.530;2023-04-08T03:40:34;6.10;99.90
5802;DHT22;2927;49.366;8.530;2023-04-08T03:43:00;6.10;99.90
5802;DHT22;2927;49.366;8.530;2023-04-08T03:45:25;6.00;99.90
5802;DHT22;2927;49.366;8.530;2023-04-08T03:47:51;6.00;99.90
5802;DHT22;2927;49.366;8.530;2023-04-08T03:50:16;6.00;99.90
5802;DHT22;2927;49.366;8.530;2023-04-08T03:52:42;6.10;99.90
5802;DHT22;2927;49.366;8.530;2023-04-08T03:55:08;6.10;99.90
5802;DHT22;2927;49.366;8.530;2023-04-08T03:57:33;6.10;99.90
5802;DHT22;2927;49.366;8.530;2023-04-08T03:59:59;6.10;99.90
5802;DHT22;2927;49.366;8.530;2023-04-08T04:02:25;6.10;99.90
5802;DHT22;2927;49.366;8.530;2023-04-08T04:04:50;6.10;99.90
5802;DHT22;2927;49.366;8.530;2023-04-08T04:07:16;6.20;99.90
5802;DHT22;2927;49.366;8.530;2023-04-08T04:09:41;6.20;99.90
5802;DHT22;2927;49.366;8.530;2023-04-08T04:12:07;6.30;99.90
5802;DHT22;2927;49.366;8.530;2023-04-08T04:14:32;6.40;99.90
5802;DHT22;2927;49.366;8.530;2023-04-08T04:16:58;6.50;99.90
5802;DHT22;2927;49.366;8.530;2023-04-08T04:19:23;6.60;99.90
5802;DHT22;2927;49.366;8.530;2023-04-08T04:21:49;6.60;99.90
5802;DHT22;2927;49.366;8.530;2023-04-08T04:24:14;6.60;99.90
5802;DHT22;2927;49.366;8.530;2023-04-08T04:26:40;6.70;99.90
5802;DHT22;2927;49.366;8.530;2023-04-08T04:29:06;6.70;99.90
5802;DHT22;2927;49.366;8.530;2023-04-08T04:31:32;6.70;99.90
5802;DHT22;2927;49.366;8.530;2023-04-08T04:33:57;6.80;99.90
5802;DHT22;2927;49.366;8.530;2023-04-08T04:36:23;6.80;99.90
5802;DHT22;2927;49.366;8.530;2023-04-08T04:38:48;6.80;99.90
5802;DHT22;2927;49.366;8.530;2023-04-08T04:41:14;6.80;99.90
5802;DHT22;2927;49.366;8.530;2023-04-08T04:43:40;6.90;99.90
5802;DHT22;2927;49.366;8.530;2023-04-08T04:46:06;6.90;99.90
5802;DHT22;2927;49.366;8.530;2023-04-08T04:48:36;6.90;99.90
5802;DHT22;2927;49.366;8.530;2023-04-08T04:51:01;7.00;99.90
5802;DHT22;2927;49.366;8.530;2023-04-08T04:53:28;7.00;99.90
5802;DHT22;2927;49.366;8.530;2023-04-08T04:55:54;7.00;99.90
5802;DHT22;2927;49.366;8.530;2023-04-08T04:58:20;7.10;99.90
5802;DHT22;2927;49.366;8.530;2023-04-08T05:00:45;7.10;99.90
5802;DHT22;2927;49.366;8.530;2023-04-08T05:03:11;7.10;99.90
5802;DHT22;2927;49.366;8.530;2023-04-08T05:05:37;7.10;99.90
5802;DHT22;2927;49.366;8.530;2023-04-08T05:08:03;7.10;99.90
5802;DHT22;2927;49.366;8.530;2023-04-08T05:10:29;7.10;99.90
5802;DHT22;2927;49.366;8.530;2023-04-08T05:12:54;7.20;99.90
5802;DHT22;2927;49.366;8.530;2023-04-08T05:15:20;7.20;99.90
5802;DHT22;2927;49.366;8.530;2023-04-08T05:17:46;7.20;99.90
5802;DHT22;2927;49.366;8.530;2023-04-08T05:20:11;7.30;99.90
5802;DHT22;2927;49.366;8.530;2023-04-08T05:22:37;7.30;99.90
5802;DHT22;2927;49.366;8.530;2023-04-08T05:25:03;7.40;99.90
5802;DHT22;2927;49.366;8.530;2023-04-08T05:27:29;7.40;99.90
5802;DHT22;2927;49.366;8.530;2023-04-08T05:29:54;7.50;99.90
5802;DHT22;2927;49.366;8.530;2023-04-08T05:32:20;7.50;99.90
5802;DHT22;2927;49.366;8.530;2023-04-08T05:34:46;7.60;99.90
5802;DHT22;2927;49.366;8.530;2023-04-08T05:37:11;7.60;99.90
5802;DHT22;2927;49.366;8.530;2023-04-08T05:39:37;7.70;99.90
5802;DHT22;2927;49.366;8.530;2023-04-08T05:42:02;7.80;99.90
5802;DHT22;2927;49.366;8.530;2023-04-08T05:44:28;7.80;99.90
5802;DHT22;2927;49.366;8.530;2023-04-08T05:46:53;7.90;99.90
5802;DHT22;2927;49.366;8.530;2023-04-08T05:49:20;8.00;99.90
5802;DHT22;2927;49.366;8.530;2023-04-08T05:51:45;8.00;99.90
5802;DHT22;2927;49.366;8.530;2023-04-08T05:54:11;8.10;99.90
5802;DHT22;2927;49.366;8.530;2023-04-08T05:56:37;8.20;99.90
5802;DHT22;2927;49.366;8.530;2023-04-08T05:59:02;8.20;99.90
5802;DHT22;2927;49.366;8.530;2023-04-08T06:01:28;8.20;99.90
5802;DHT22;2927;49.366;8.530;2023-04-08T06:03:53;8.20;99.90
5802;DHT22;2927;49.366;8.530;2023-04-08T06:06:21;8.30;99.90
5802;DHT22;2927;49.366;8.530;2023-04-08T06:08:46;8.40;99.90
5802;DHT22;2927;49.366;8.530;2023-04-08T06:11:12;8.40;99.90
5802;DHT22;2927;49.366;8.530;2023-04-08T06:13:38;8.60;99.90
5802;DHT22;2927;49.366;8.530;2023-04-08T06:16:14;8.80;99.90
5802;DHT22;2927;49.366;8.530;2023-04-08T06:18:40;10.70;99.90
5802;DHT22;2927;49.366;8.530;2023-04-08T06:21:05;12.70;1.00
5802;DHT22;2927;49.366;8.530;2023-04-08T06:23:31;14.30;99.90
5802;DHT22;2927;49.366;8.530;2023-04-08T06:25:57;15.10;92.80
5802;DHT22;2927;49.366;8.530;2023-04-08T06:28:23;15.50;1.00
5802;DHT22;2927;49.366;8.530;2023-04-08T06:30:48;14.90;1.00
5802;DHT22;2927;49.366;8.530;2023-04-08T06:33:14;14.20;1.00
5802;DHT22;2927;49.366;8.530;2023-04-08T06:35:39;13.00;1.00
5802;DHT22;2927;49.366;8.530;2023-04-08T06:38:05;12.10;1.00
5802;DHT22;2927;49.366;8.530;2023-04-08T06:40:31;11.90;1.00
5802;DHT22;2927;49.366;8.530;2023-04-08T06:42:56;11.80;1.00
5802;DHT22;2927;49.366;8.530;2023-04-08T06:45:22;11.80;1.00
5802;DHT22;2927;49.366;8.530;2023-04-08T06:47:47;12.40;99.90
5802;DHT22;2927;49.366;8.530;2023-04-08T06:50:13;14.40;99.90
5802;DHT22;2927;49.366;8.530;2023-04-08T06:52:39;15.70;99.90
5802;DHT22;2927;49.366;8.530;2023-04-08T06:55:05;15.70;97.50
5802;DHT22;2927;49.366;8.530;2023-04-08T06:57:30;14.90;99.90
5802;DHT22;2927;49.366;8.530;2023-04-08T06:59:56;14.50;1.00
5802;DHT22;2927;49.366;8.530;2023-04-08T07:02:21;14.30;1.00
5802;DHT22;2927;49.366;8.530;2023-04-08T07:04:48;15.40;1.00
5802;DHT22;2927;49.366;8.530;2023-04-08T07:07:14;16.60;1.00
5802;DHT22;2927;49.366;8.530;2023-04-08T07:09:39;18.10;1.00
5802;DHT22;2927;49.366;8.530;2023-04-08T07:12:07;18.10;99.90
5802;DHT22;2927;49.366;8.530;2023-04-08T07:14:33;18.80;99.90
5802;DHT22;2927;49.366;8.530;2023-04-08T07:16:58;19.00;99.90
5802;DHT22;2927;49.366;8.530;2023-04-08T07:19:24;18.30;99.90
5802;DHT22;2927;49.366;8.530;2023-04-08T07:21:49;18.10;99.90
5802;DHT22;2927;49.366;8.530;2023-04-08T07:24:16;17.80;99.90
5802;DHT22;2927;49.366;8.530;2023-04-08T07:26:43;17.10;99.90
5802;DHT22;2927;49.366;8.530;2023-04-08T07:29:08;16.60;99.90
5802;DHT22;2927;49.366;8.530;2023-04-08T07:31:34;16.20;99.90
5802;DHT22;2927;49.366;8.530;2023-04-08T07:33:59;16.10;99.90
5802;DHT22;2927;49.366;8.530;2023-04-08T07:36:25;16.10;99.90
5802;DHT22;2927;49.366;8.530;2023-04-08T07:38:50;15.90;99.90
5802;DHT22;2927;49.366;8.530;2023-04-08T07:41:16;16.00;99.90
5802;DHT22;2927;49.366;8.530;2023-04-08T07:43:41;15.30;99.90
5802;DHT22;2927;49.366;8.530;2023-04-08T07:46:07;15.90;99.90
5802;DHT22;2927;49.366;8.530;2023-04-08T07:48:33;16.20;99.90
5802;DHT22;2927;49.366;8.530;2023-04-08T07:51:06;16.50;99.90
5802;DHT22;2927;49.366;8.530;2023-04-08T07:53:32;16.20;99.90
5802;DHT22;2927;49.366;8.530;2023-04-08T07:55:59;15.70;99.90
5802;DHT22;2927;49.366;8.530;2023-04-08T07:58:24;15.80;99.90
5802;DHT22;2927;49.366;8.530;2023-04-08T08:00:50;15.60;99.90
5802;DHT22;2927;49.366;8.530;2023-04-08T08:03:16;15.50;99.90
5802;DHT22;2927;49.366;8.530;2023-04-08T08:05:42;15.10;1.00
5802;DHT22;2927;49.366;8.530;2023-04-08T08:08:07;14.50;1.00
5802;DHT22;2927;49.366;8.530;2023-04-08T08:10:36;13.80;1.00
5802;DHT22;2927;49.366;8.530;2023-04-08T08:13:02;13.70;1.00
5802;DHT22;2927;49.366;8.530;2023-04-08T08:15:27;13.20;1.00
5802;DHT22;2927;49.366;8.530;2023-04-08T08:17:53;12.90;1.00
5802;DHT22;2927;49.366;8.530;2023-04-08T08:20:18;12.80;1.00
5802;DHT22;2927;49.366;8.530;2023-04-08T08:22:44;13.70;1.00
5802;DHT22;2927;49.366;8.530;2023-04-08T08:25:10;15.10;1.00
5802;DHT22;2927;49.366;8.530;2023-04-08T08:27:35;17.10;99.90
5802;DHT22;2927;49.366;8.530;2023-04-08T08:30:02;18.80;99.90
5802;DHT22;2927;49.366;8.530;2023-04-08T08:32:28;20.30;99.90
5802;DHT22;2927;49.366;8.530;2023-04-08T08:34:53;21.10;75.50
5802;DHT22;2927;49.366;8.530;2023-04-08T08:37:19;21.70;9.10
5802;DHT22;2927;49.366;8.530;2023-04-08T08:39:45;21.60;1.00
5802;DHT22;2927;49.366;8.530;2023-04-08T08:42:24;21.70;1.00
5802;DHT22;2927;49.366;8.530;2023-04-08T08:44:50;21.60;1.00
5802;DHT22;2927;49.366;8.530;2023-04-08T08:47:16;21.00;1.00
5802;DHT22;2927;49.366;8.530;2023-04-08T08:49:43;19.50;1.00
5802;DHT22;2927;49.366;8.530;2023-04-08T08:52:09;18.60;1.00
5802;DHT22;2927;49.366;8.530;2023-04-08T08:54:36;18.20;14.00
5802;DHT22;2927;49.366;8.530;2023-04-08T08:57:02;18.50;11.20
5802;DHT22;2927;49.366;8.530;2023-04-08T08:59:27;18.90;1.00
5802;DHT22;2927;49.366;8.530;2023-04-08T09:01:53;18.70;1.00
5802;DHT22;2927;49.366;8.530;2023-04-08T09:04:19;17.60;1.00
5802;DHT22;2927;49.366;8.530;2023-04-08T09:07:07;16.60;1.00
5802;DHT22;2927;49.366;8.530;2023-04-08T09:09:51;16.60;10.30
5802;DHT22;2927;49.366;8.530;2023-04-08T09:12:17;17.70;10.70
5802;DHT22;2927;49.366;8.530;2023-04-08T09:14:43;17.80;1.00
5802;DHT22;2927;49.366;8.530;2023-04-08T09:17:08;17.40;1.00
5802;DHT22;2927;49.366;8.530;2023-04-08T09:19:34;17.90;2.70
5802;DHT22;2927;49.366;8.530;2023-04-08T09:22:07;18.00;1.00
5802;DHT22;2927;49.366;8.530;2023-04-08T09:24:34;18.00;1.00
5802;DHT22;2927;49.366;8.530;2023-04-08T09:27:00;17.60;1.00
5802;DHT22;2927;49.366;8.530;2023-04-08T09:29:26;17.90;1.00
5802;DHT22;2927;49.366;8.530;2023-04-08T09:31:59;17.70;1.00
5802;DHT22;2927;49.366;8.530;2023-04-08T09:34:26;17.70;1.00
5802;DHT22;2927;49.366;8.530;2023-04-08T09:36:52;17.40;1.00
5802;DHT22;2927;49.366;8.530;2023-04-08T09:39:19;16.50;5.50
5802;DHT22;2927;49.366;8.530;2023-04-08T09:41:47;15.80;18.40
5802;DHT22;2927;49.366;8.530;2023-04-08T09:44:14;15.40;38.30
5802;DHT22;2927;49.366;8.530;2023-04-08T09:47:00;15.30;57.30
5802;DHT22;2927;49.366;8.530;2023-04-08T09:49:40;15.20;60.00
5802;DHT22;2927;49.366;8.530;2023-04-08T09:52:12;15.10;73.40
5802;DHT22;2927;49.366;8.530;2023-04-08T09:54:56;15.50;82.70
5802;DHT22;2927;49.366;8.530;2023-04-08T10:00:14;15.60;91.80
5802;DHT22;2927;49.366;8.530;2023-04-08T10:03:08;15.40;95.20
5802;DHT22;2927;49.366;8.530;2023-04-08T10:05:36;15.60;99.90
5802;DHT22;2927;49.366;8.530;2023-04-08T10:08:04;16.50;90.20
5802;DHT22;2927;49.366;8.530;2023-04-08T10:10:30;16.50;78.30
5802;DHT22;2927;49.366;8.530;2023-04-08T10:12:56;16.10;43.80
5802;DHT22;2927;49.366;8.530;2023-04-08T10:15:30;15.70;55.00
5802;DHT22;2927;49.366;8.530;2023-04-08T10:20:44;15.20;99.90
5802;DHT22;2927;49.366;8.530;2023-04-08T10:23:14;15.10;99.90
5802;DHT22;2927;49.366;8.530;2023-04-08T10:33:32;14.40;99.90
5802;DHT22;2927;49.366;8.530;2023-04-08T10:36:10;14.30;99.90
5802;DHT22;2927;49.366;8.530;2023-04-08T10:38:40;14.10;99.90
5802;DHT22;2927;49.366;8.530;2023-04-08T10:41:08;13.80;99.90
5802;DHT22;2927;49.366;8.530;2023-04-08T10:43:35;13.80;99.90
5802;DHT22;2927;49.366;8.530;2023-04-08T10:46:01;13.80;99.90
5802;DHT22;2927;49.366;8.530;2023-04-08T10:48:27;13.70;99.90
5802;DHT22;2927;49.366;8.530;2023-04-08T10:50:57;13.60;99.90
5802;DHT22;2927;49.366;8.530;2023-04-08T10:53:28;13.60;99.90
5802;DHT22;2927;49.366;8.530;2023-04-08T10:56:23;13.70;99.90
5802;DHT22;2927;49.366;8.530;2023-04-08T10:58:53;13.60;99.90
5802;DHT22;2927;49.366;8.530;2023-04-08T11:01:21;13.40;99.90
5802;DHT22;2927;49.366;8.530;2023-04-08T11:03:47;13.30;99.90
5802;DHT22;2927;49.366;8.530;2023-04-08T11:06:13;13.40;99.90
5802;DHT22;2927;49.366;8.530;2023-04-08T11:08:39;13.40;99.90
5802;DHT22;2927;49.366;8.530;2023-04-08T11:11:05;13.40;99.90
5802;DHT22;2927;49.366;8.530;2023-04-08T11:13:39;13.30;99.90
5802;DHT22;2927;49.366;8.530;2023-04-08T11:16:06;13.30;99.90
5802;DHT22;2927;49.366;8.530;2023-04-08T11:18:42;13.50;99.90
5802;DHT22;2927;49.366;8.530;2023-04-08T11:21:10;13.50;99.90
5802;DHT22;2927;49.366;8.530;2023-04-08T11:23:36;13.50;99.90
5802;DHT22;2927;49.366;8.530;2023-04-08T11:26:02;13.40;99.90
5802;DHT22;2927;49.366;8.530;2023-04-08T11:28:28;13.50;99.90
5802;DHT22;2927;49.366;8.530;2023-04-08T11:30:54;13.30;99.90
5802;DHT22;2927;49.366;8.530;2023-04-08T11:33:20;13.20;99.90
5802;DHT22;2927;49.366;8.530;2023-04-08T11:35:50;13.40;99.90
5802;DHT22;2927;49.366;8.530;2023-04-08T11:38:16;13.30;99.90
5802;DHT22;2927;49.366;8.530;2023-04-08T11:40:56;13.30;99.90
5802;DHT22;2927;49.366;8.530;2023-04-08T11:43:23;13.50;99.90
5802;DHT22;2927;49.366;8.530;2023-04-08T11:45:49;13.60;99.90
5802;DHT22;2927;49.366;8.530;2023-04-08T11:48:15;13.50;99.90
5802;DHT22;2927;49.366;8.530;2023-04-08T11:50:42;13.70;99.90
5802;DHT22;2927;49.366;8.530;2023-04-08T11:53:23;14.00;99.90
5802;DHT22;2927;49.366;8.530;2023-04-08T11:55:49;14.20;99.90
5802;DHT22;2927;49.366;8.530;2023-04-08T11:58:15;14.30;99.90
5802;DHT22;2927;49.366;8.530;2023-04-08T12:00:41;14.00;99.90
5802;DHT22;2927;49.366;8.530;2023-04-08T12:03:07;13.90;99.90
5802;DHT22;2927;49.366;8.530;2023-04-08T12:05:33;14.00;99.90
5802;DHT22;2927;49.366;8.530;2023-04-08T12:07:58;14.30;99.90
5802;DHT22;2927;49.366;8.530;2023-04-08T12:10:24;14.40;99.90
5802;DHT22;2927;49.366;8.530;2023-04-08T12:12:50;14.70;99.90
5802;DHT22;2927;49.366;8.530;2023-04-08T12:15:16;14.90;99.90
5802;DHT22;2927;49.366;8.530;2023-04-08T12:17:42;14.90;99.90
5802;DHT22;2927;49.366;8.530;2023-04-08T12:20:09;14.80;99.90
5802;DHT22;2927;49.366;8.530;2023-04-08T12:22:35;14.70;99.90
5802;DHT22;2927;49.366;8.530;2023-04-08T12:25:01;14.80;99.90
5802;DHT22;2927;49.366;8.530;2023-04-08T12:27:28;15.00;99.90
5802;DHT22;2927;49.366;8.530;2023-04-08T12:29:53;15.00;99.90
5802;DHT22;2927;49.366;8.530;2023-04-08T12:32:19;15.10;99.90
5802;DHT22;2927;49.366;8.530;2023-04-08T12:34:46;14.90;99.90
5802;DHT22;2927;49.366;8.530;2023-04-08T12:37:11;15.00;99.90
5802;DHT22;2927;49.366;8.530;2023-04-08T12:39:37;14.80;99.90
5802;DHT22;2927;49.366;8.530;2023-04-08T12:42:03;15.20;99.90
5802;DHT22;2927;49.366;8.530;2023-04-08T12:44:29;15.30;99.90
5802;DHT22;2927;49.366;8.530;2023-04-08T12:46:55;15.20;99.90
5802;DHT22;2927;49.366;8.530;2023-04-08T12:49:22;15.30;99.90
5802;DHT22;2927;49.366;8.530;2023-04-08T12:51:48;14.80;99.90
5802;DHT22;2927;49.366;8.530;2023-04-08T12:54:13;14.80;99.90
5802;DHT22;2927;49.366;8.530;2023-04-08T12:56:39;14.90;99.90
5802;DHT22;2927;49.366;8.530;2023-04-08T12:59:05;14.90;99.90
5802;DHT22;2927;49.366;8.530;2023-04-08T13:01:30;15.00;99.90
5802;DHT22;2927;49.366;8.530;2023-04-08T13:03:56;15.20;99.90
5802;DHT22;2927;49.366;8.530;2023-04-08T13:06:21;15.20;99.90
5802;DHT22;2927;49.366;8.530;2023-04-08T13:08:47;15.20;99.90
5802;DHT22;2927;49.366;8.530;2023-04-08T13:11:13;15.10;99.90
5802;DHT22;2927;49.366;8.530;2023-04-08T13:13:38;14.80;99.90
5802;DHT22;2927;49.366;8.530;2023-04-08T13:16:04;15.00;99.90
5802;DHT22;2927;49.366;8.530;2023-04-08T13:18:29;15.20;99.90
5802;DHT22;2927;49.366;8.530;2023-04-08T13:20:55;15.00;99.90
5802;DHT22;2927;49.366;8.530;2023-04-08T13:23:22;14.40;99.90
5802;DHT22;2927;49.366;8.530;2023-04-08T13:25:47;14.50;99.90
5802;DHT22;2927;49.366;8.530;2023-04-08T13:28:13;14.60;99.90
5802;DHT22;2927;49.366;8.530;2023-04-08T13:30:39;14.40;99.90
5802;DHT22;2927;49.366;8.530;2023-04-08T13:33:05;14.30;99.90
5802;DHT22;2927;49.366;8.530;2023-04-08T13:35:31;14.10;99.90
5802;DHT22;2927;49.366;8.530;2023-04-08T13:37:56;14.10;99.90
5802;DHT22;2927;49.366;8.530;2023-04-08T13:40:22;14.00;99.90
5802;DHT22;2927;49.366;8.530;2023-04-08T13:42:48;14.10;99.90
5802;DHT22;2927;49.366;8.530;2023-04-08T13:45:14;14.00;99.90
5802;DHT22;2927;49.366;8.530;2023-04-08T13:47:39;13.80;99.90
5802;DHT22;2927;49.366;8.530;2023-04-08T13:50:06;13.90;99.90
5802;DHT22;2927;49.366;8.530;2023-04-08T13:52:32;13.90;99.90
5802;DHT22;2927;49.366;8.530;2023-04-08T13:54:57;14.20;99.90
5802;DHT22;2927;49.366;8.530;2023-04-08T13:57:23;14.20;99.90
5802;DHT22;2927;49.366;8.530;2023-04-08T13:59:48;14.30;99.90
5802;DHT22;2927;49.366;8.530;2023-04-08T14:02:14;14.30;99.90
5802;DHT22;2927;49.366;8.530;2023-04-08T14:04:39;14.10;99.90
5802;DHT22;2927;49.366;8.530;2023-04-08T14:07:05;14.10;99.90
5802;DHT22;2927;49.366;8.530;2023-04-08T14:09:31;14.20;99.90
5802;DHT22;2927;49.366;8.530;2023-04-08T14:11:56;14.20;99.90
5802;DHT22;2927;49.366;8.530;2023-04-08T14:14:23;14.70;99.90
5802;DHT22;2927;49.366;8.530;2023-04-08T14:16:48;15.00;99.90
5802;DHT22;2927;49.366;8.530;2023-04-08T14:19:14;15.10;99.90
5802;DHT22;2927;49.366;8.530;2023-04-08T14:21:40;15.00;99.90
5802;DHT22;2927;49.366;8.530;2023-04-08T14:24:06;15.00;99.90
5802;DHT22;2927;49.366;8.530;2023-04-08T14:26:31;15.00;99.90
5802;DHT22;2927;49.366;8.530;2023-04-08T14:29:02;15.10;99.90
5802;DHT22;2927;49.366;8.530;2023-04-08T14:31:27;15.10;99.90
5802;DHT22;2927;49.366;8.530;2023-04-08T14:33:53;14.80;99.90
5802;DHT22;2927;49.366;8.530;2023-04-08T14:36:18;14.80;99.90
5802;DHT22;2927;49.366;8.530;2023-04-08T14:38:44;14.90;99.90
5802;DHT22;2927;49.366;8.530;2023-04-08T14:41:10;15.00;99.90
5802;DHT22;2927;49.366;8.530;2023-04-08T14:43:36;14.90;99.90
5802;DHT22;2927;49.366;8.530;2023-04-08T14:46:01;14.80;99.90
5802;DHT22;2927;49.366;8.530;2023-04-08T14:48:27;14.70;1.00
5802;DHT22;2927;49.366;8.530;2023-04-08T14:50:55;14.70;99.90
5802;DHT22;2927;49.366;8.530;2023-04-08T14:53:21;14.70;1.00
5802;DHT22;2927;49.366;8.530;2023-04-08T14:55:48;14.50;1.00
5802;DHT22;2927;49.366;8.530;2023-04-08T14:58:13;14.50;1.00
5802;DHT22;2927;49.366;8.530;2023-04-08T15:00:39;14.50;1.00
5802;DHT22;2927;49.366;8.530;2023-04-08T15:03:09;14.30;1.00
5802;DHT22;2927;49.366;8.530;2023-04-08T15:05:36;14.20;1.00
5802;DHT22;2927;49.366;8.530;2023-04-08T15:08:02;13.90;1.00
5802;DHT22;2927;49.366;8.530;2023-04-08T15:10:28;14.00;1.00
5802;DHT22;2927;49.366;8.530;2023-04-08T15:12:53;13.80;1.00
5802;DHT22;2927;49.366;8.530;2023-04-08T15:15:19;13.70;1.00
5802;DHT22;2927;49.366;8.530;2023-04-08T15:17:44;13.60;1.00
5802;DHT22;2927;49.366;8.530;2023-04-08T15:20:10;13.50;1.00
5802;DHT22;2927;49.366;8.530;2023-04-08T15:22:36;13.50;1.00
5802;DHT22;2927;49.366;8.530;2023-04-08T15:25:02;13.50;50.20
5802;DHT22;2927;49.366;8.530;2023-04-08T15:27:29;13.40;99.90
5802;DHT22;2927;49.366;8.530;2023-04-08T15:29:55;13.40;99.90
5802;DHT22;2927;49.366;8.530;2023-04-08T15:32:21;13.30;99.90
5802;DHT22;2927;49.366;8.530;2023-04-08T15:34:46;13.40;99.90
5802;DHT22;2927;49.366;8.530;2023-04-08T15:37:12;13.40;99.90
5802;DHT22;2927;49.366;8.530;2023-04-08T15:39:38;13.20;99.90
5802;DHT22;2927;49.366;8.530;2023-04-08T15:42:05;13.30;99.90
5802;DHT22;2927;49.366;8.530;2023-04-08T15:44:31;13.30;99.90
5802;DHT22;2927;49.366;8.530;2023-04-08T15:46:57;13.30;99.90
5802;DHT22;2927;49.366;8.530;2023-04-08T15:49:22;13.30;99.90
5802;DHT22;2927;49.366;8.530;2023-04-08T15:51:48;13.10;99.90
5802;DHT22;2927;49.366;8.530;2023-04-08T15:54:15;12.90;99.90
5802;DHT22;2927;49.366;8.530;2023-04-08T15:56:41;12.80;99.90
5802;DHT22;2927;49.366;8.530;2023-04-08T15:59:08;12.90;99.90
5802;DHT22;2927;49.366;8.530;2023-04-08T16:01:34;12.90;99.90
5802;DHT22;2927;49.366;8.530;2023-04-08T16:04:00;12.80;99.90
5802;DHT22;2927;49.366;8.530;2023-04-08T16:06:26;12.80;99.90
5802;DHT22;2927;49.366;8.530;2023-04-08T16:08:51;12.90;99.90
5802;DHT22;2927;49.366;8.530;2023-04-08T16:11:17;13.10;99.90
5802;DHT22;2927;49.366;8.530;2023-04-08T16:13:42;13.10;99.90
5802;DHT22;2927;49.366;8.530;2023-04-08T16:16:08;13.20;3.60
5802;DHT22;2927;49.366;8.530;2023-04-08T16:18:34;13.30;14.10
5802;DHT22;2927;49.366;8.530;2023-04-08T16:21:03;13.40;1.00
5802;DHT22;2927;49.366;8.530;2023-04-08T16:23:29;13.40;1.00
5802;DHT22;2927;49.366;8.530;2023-04-08T16:25:55;13.40;98.20